Time;durP1;ratioP1;P1;durP2;ratioP2;P2;SDS_P1;SDS_P2;PMS_P1;PMS_P2;Temp;Humidity;BMP_temperature;BMP_pressure;BME280_temperature;BME280_humidity;BME280_pressure;Samples;Min_cycle;Max_cycle;Signal;HPM_P1;HPM_P2
2020/12/02 00:00:32;;;;;;;9.15;4.80;;;20.10;44.10;;;;;;5047278;28;20464;-76
2020/12/02 00:03:26;;;;;;;8.38;5.55;;;20.10;44.00;;;;;;5064681;28;20070;-75
2020/12/02 00:05:54;;;;;;;4.15;1.90;;;20.10;44.00;;;;;;5058483;28;20092;-75
2020/12/02 00:08:25;;;;;;;5.25;3.20;;;20.10;44.10;;;;;;5097463;28;20040;-75
2020/12/02 00:10:50;;;;;;;11.35;5.80;;;20.10;44.00;;;;;;5073904;28;20074;-76
2020/12/02 00:13:26;;;;;;;9.93;5.72;;;20.10;44.00;;;;;;5084615;28;20028;-74
2020/12/02 00:15:58;;;;;;;7.65;4.45;;;20.10;44.00;;;;;;5067046;28;20051;-75
2020/12/02 00:18:24;;;;;;;4.70;2.53;;;20.10;44.00;;;;;;5069789;28;20424;-75
2020/12/02 00:20:49;;;;;;;3.83;1.33;;;20.10;44.00;;;;;;5058272;28;20028;-75
2020/12/02 00:23:15;;;;;;;7.43;4.47;;;20.10;44.00;;;;;;5080455;28;20032;-75
2020/12/02 00:25:41;;;;;;;9.82;5.85;;;20.10;44.00;;;;;;5080764;28;20135;-75
2020/12/02 00:28:08;;;;;;;8.63;5.95;;;20.10;44.00;;;;;;5065796;28;20064;-74
2020/12/02 00:30:34;;;;;;;5.32;3.75;;;20.10;44.00;;;;;;5046946;28;20523;-75
2020/12/02 00:33:26;;;;;;;9.32;4.90;;;20.10;44.00;;;;;;5039088;28;20029;-75
2020/12/02 00:36:10;;;;;;;4.65;2.88;;;20.10;44.00;;;;;;5049328;28;20448;-75
2020/12/02 00:38:36;;;;;;;10.57;6.00;;;20.10;44.00;;;;;;5053480;28;20044;-76
2020/12/02 00:41:01;;;;;;;8.23;5.47;;;20.10;44.00;;;;;;5068322;28;20025;-76
2020/12/02 00:43:28;;;;;;;3.22;1.73;;;20.10;44.10;;;;;;5045441;28;20041;-76
2020/12/02 00:45:58;;;;;;;2.60;1.52;;;20.10;44.10;;;;;;5037390;28;20057;-76
2020/12/02 00:48:24;;;;;;;8.13;4.43;;;20.10;44.10;;;;;;5041679;28;20492;-77
2020/12/02 00:50:50;;;;;;;6.72;4.15;;;20.10;44.10;;;;;;5060088;28;20012;-77
2020/12/02 00:53:22;;;;;;;8.50;5.28;;;20.00;44.10;;;;;;5048446;28;20021;-77
2020/12/02 00:55:48;;;;;;;1.75;1.17;;;20.00;44.00;;;;;;5037857;28;20048;-77
2020/12/02 00:58:34;;;;;;;8.82;5.97;;;20.00;44.10;;;;;;5035922;28;20060;-78
2020/12/02 01:01:00;;;;;;;6.43;3.83;;;20.00;44.10;;;;;;5061018;28;20549;-73
2020/12/02 01:03:27;;;;;;;8.55;5.22;;;20.00;44.10;;;;;;5060575;28;20029;-77
2020/12/02 01:05:53;;;;;;;7.68;4.47;;;20.00;44.10;;;;;;5055165;28;20020;-76
2020/12/02 01:11:40;;;;;;;3.40;1.05;;;20.00;44.10;;;;;;5045733;28;20028;-75
2020/12/02 01:14:09;;;;;;;11.07;5.80;;;20.00;44.20;;;;;;5047192;28;20096;-76
2020/12/02 01:16:40;;;;;;;7.53;4.47;;;20.00;44.20;;;;;;5041885;28;20017;-77
2020/12/02 01:22:37;;;;;;;10.63;5.70;;;19.90;44.20;;;;;;5053700;28;20074;-76
2020/12/02 01:25:19;;;;;;;7.70;3.33;;;19.90;44.20;;;;;;5053025;28;20122;-76
2020/12/02 01:27:57;;;;;;;7.13;3.53;;;19.90;44.30;;;;;;5048575;28;20037;-76
2020/12/02 01:30:22;;;;;;;4.97;2.33;;;19.90;44.30;;;;;;5054892;28;20028;-76
2020/12/02 01:32:48;;;;;;;6.95;3.15;;;19.90;44.40;;;;;;5045759;28;20836;-77
2020/12/02 01:35:23;;;;;;;6.32;3.03;;;19.90;44.40;;;;;;5063382;28;20036;-77
2020/12/02 01:37:54;;;;;;;6.15;2.55;;;19.90;44.30;;;;;;5055350;28;20124;-76
2020/12/02 01:40:21;;;;;;;8.43;5.95;;;19.90;44.40;;;;;;5038342;28;20497;-75
2020/12/02 01:42:49;;;;;;;16.13;4.65;;;19.90;44.30;;;;;;5040702;28;20020;-75
2020/12/02 01:45:41;;;;;;;6.65;4.35;;;19.90;44.30;;;;;;5052545;28;20017;-75
2020/12/02 01:48:19;;;;;;;2.28;1.75;;;19.90;44.30;;;;;;5041275;28;20039;-76
2020/12/02 01:50:47;;;;;;;7.45;4.65;;;19.90;44.30;;;;;;5051301;28;20014;-75
2020/12/02 01:53:24;;;;;;;7.18;4.78;;;19.90;44.20;;;;;;5053682;28;20033;-75
2020/12/02 01:56:03;;;;;;;12.05;6.00;;;19.90;44.20;;;;;;5035818;28;20030;-75
2020/12/02 01:58:44;;;;;;;9.75;4.80;;;19.90;44.20;;;;;;5038832;28;20026;-76
2020/12/02 02:01:17;;;;;;;6.10;3.90;;;19.90;44.20;;;;;;5054982;28;20033;-76
2020/12/02 02:03:42;;;;;;;9.52;6.07;;;19.90;44.20;;;;;;5053293;28;20052;-76
2020/12/02 02:06:22;;;;;;;10.05;5.70;;;19.90;44.20;;;;;;5047475;28;20107;-76
2020/12/02 02:08:48;;;;;;;3.90;1.35;;;19.90;44.20;;;;;;5034407;28;20026;-67
2020/12/02 02:11:17;;;;;;;3.13;1.30;;;19.90;44.20;;;;;;5045283;28;20036;-67
2020/12/02 02:14:00;;;;;;;10.55;4.30;;;19.90;44.20;;;;;;5054896;28;20040;-67
2020/12/02 02:16:49;;;;;;;4.43;2.47;;;19.90;44.20;;;;;;5050503;28;20094;-67
2020/12/02 02:19:19;;;;;;;6.30;3.47;;;19.90;44.30;;;;;;5047882;28;20102;-67
2020/12/02 02:21:44;;;;;;;1.65;0.93;;;19.90;44.30;;;;;;5038206;28;20113;-68
2020/12/02 02:24:10;;;;;;;0.55;0.55;;;19.90;44.20;;;;;;5043704;28;20136;-67
2020/12/02 02:26:39;;;;;;;2.50;1.73;;;19.90;44.20;;;;;;5055753;28;20067;-67
2020/12/02 02:29:09;;;;;;;1.25;1.13;;;19.90;44.30;;;;;;5051311;28;20491;-68
2020/12/02 02:31:51;;;;;;;9.60;3.88;;;19.80;44.20;;;;;;5038292;28;20029;-67
2020/12/02 02:34:17;;;;;;;2.85;2.17;;;19.80;44.30;;;;;;5053883;28;20030;-68
2020/12/02 02:36:43;;;;;;;0.93;0.47;;;19.80;44.20;;;;;;5019316;28;20451;-67
2020/12/02 02:39:09;;;;;;;6.55;3.50;;;19.80;44.30;;;;;;5033326;28;20033;-68
2020/12/02 02:41:34;;;;;;;5.95;2.97;;;19.80;44.30;;;;;;5048385;28;20029;-67
2020/12/02 02:44:00;;;;;;;7.72;4.20;;;19.80;44.30;;;;;;5033615;28;21898;-67
2020/12/02 02:46:25;;;;;;;9.25;6.88;;;19.80;44.30;;;;;;5046057;28;20090;-67
2020/12/02 02:48:51;;;;;;;3.28;1.25;;;19.80;44.30;;;;;;5046427;28;20025;-67
2020/12/02 02:51:17;;;;;;;6.90;2.72;;;19.80;44.30;;;;;;5033139;28;20476;-75
2020/12/02 02:53:42;;;;;;;10.02;5.90;;;19.80;44.30;;;;;;5032834;28;20112;-76
2020/12/02 02:56:10;;;;;;;11.82;6.90;;;19.80;44.40;;;;;;5038405;28;20020;-76
2020/12/02 02:58:36;;;;;;;12.10;5.70;;;19.70;44.40;;;;;;5042392;28;20032;-76
2020/12/02 03:01:02;;;;;;;2.78;1.25;;;19.80;44.40;;;;;;5048600;28;20028;-76
2020/12/02 03:03:29;;;;;;;7.30;3.55;;;19.70;44.40;;;;;;5056921;28;20021;-76
2020/12/02 03:05:55;;;;;;;12.60;6.35;;;19.70;44.40;;;;;;5054415;28;20033;-76
2020/12/02 03:08:21;;;;;;;4.28;2.05;;;19.70;44.40;;;;;;5049052;28;20055;-79
2020/12/02 03:10:47;;;;;;;14.38;7.90;;;19.70;44.50;;;;;;5043892;28;20033;-78
2020/12/02 03:13:34;;;;;;;6.93;3.30;;;19.70;44.50;;;;;;5053951;28;20060;-79
2020/12/02 03:16:01;;;;;;;12.80;6.90;;;19.70;44.50;;;;;;5036125;28;20034;-77
2020/12/02 03:18:26;;;;;;;14.25;6.90;;;19.70;44.50;;;;;;5047063;28;20017;-78
2020/12/02 03:20:56;;;;;;;14.88;8.32;;;19.70;44.50;;;;;;5048131;28;20026;-77
2020/12/02 03:23:21;;;;;;;14.30;8.63;;;19.70;44.50;;;;;;5050566;28;20036;-67
2020/12/02 03:25:48;;;;;;;13.30;7.70;;;19.70;44.50;;;;;;5055364;28;20405;-77
2020/12/02 03:28:14;;;;;;;12.52;7.88;;;19.70;44.50;;;;;;5049399;28;20048;-78
2020/12/02 03:30:39;;;;;;;11.70;6.05;;;19.70;44.50;;;;;;5054534;28;20041;-77
2020/12/02 03:33:05;;;;;;;10.82;6.05;;;19.70;44.40;;;;;;5050730;28;20024;-77
2020/12/02 03:35:31;;;;;;;10.05;5.28;;;19.70;44.40;;;;;;5041188;28;20060;-77
2020/12/02 03:37:57;;;;;;;6.28;3.13;;;19.70;44.40;;;;;;5049670;28;20495;-68
2020/12/02 03:40:22;;;;;;;1.50;0.68;;;19.70;44.50;;;;;;5052010;28;20061;-67
2020/12/02 03:42:48;;;;;;;14.95;7.55;;;19.70;44.40;;;;;;5035965;28;20460;-68
2020/12/02 03:45:13;;;;;;;4.30;2.80;;;19.70;44.40;;;;;;5064528;28;20032;-68
2020/12/02 03:47:39;;;;;;;7.63;4.15;;;19.70;44.40;;;;;;5053510;28;20045;-68
2020/12/02 03:50:07;;;;;;;0.98;0.80;;;19.70;44.40;;;;;;5048264;28;20029;-68
2020/12/02 03:52:32;;;;;;;13.68;7.47;;;19.70;44.30;;;;;;5054347;28;20029;-68
2020/12/02 03:54:58;;;;;;;9.73;4.93;;;19.70;44.30;;;;;;5048116;28;20409;-68
2020/12/02 03:57:23;;;;;;;14.73;7.10;;;19.70;44.40;;;;;;5055699;28;20032;-68
2020/12/02 03:59:49;;;;;;;14.73;8.90;;;19.70;44.40;;;;;;5056400;28;20504;-68
2020/12/02 04:02:14;;;;;;;14.30;7.90;;;19.70;44.30;;;;;;5060292;28;20028;-68
2020/12/02 04:04:40;;;;;;;4.88;2.33;;;19.70;44.30;;;;;;5039191;28;20025;-68
2020/12/02 04:07:05;;;;;;;15.85;8.82;;;19.70;44.30;;;;;;5055830;28;20407;-68
2020/12/02 04:09:31;;;;;;;4.65;3.15;;;19.70;45.00;;;;;;5042686;28;20132;-68
2020/12/02 04:11:57;;;;;;;12.32;5.28;;;19.60;44.30;;;;;;5067399;28;20408;-69
2020/12/02 04:14:23;;;;;;;14.13;7.28;;;19.60;44.30;;;;;;5067538;28;20512;-68
2020/12/02 04:16:48;;;;;;;14.43;8.27;;;19.60;44.30;;;;;;5034707;28;20049;-68
2020/12/02 04:19:14;;;;;;;15.38;7.97;;;19.60;44.30;;;;;;5041347;28;20060;-68
2020/12/02 04:21:39;;;;;;;15.80;7.68;;;19.70;44.40;;;;;;5054405;28;20029;-68
2020/12/02 04:24:05;;;;;;;17.15;9.48;;;19.70;44.50;;;;;;5057941;28;20025;-68
2020/12/02 04:26:30;;;;;;;17.70;9.52;;;19.70;44.50;;;;;;5053469;28;20020;-68
2020/12/02 04:28:56;;;;;;;16.10;9.20;;;19.60;44.40;;;;;;5045339;28;20037;-68
2020/12/02 04:31:22;;;;;;;13.77;8.20;;;19.60;44.50;;;;;;5043061;28;20041;-68
2020/12/02 04:33:47;;;;;;;14.43;6.55;;;19.60;44.50;;;;;;5050519;28;20036;-68
2020/12/02 04:36:13;;;;;;;15.52;7.72;;;19.60;44.50;;;;;;5032646;28;20030;-68
2020/12/02 04:38:39;;;;;;;18.13;8.95;;;19.60;44.50;;;;;;5050009;28;20029;-68
2020/12/02 04:42:00;;;;;;;4.05;2.05;;;19.60;44.50;;;;;;5054818;28;20515;-67
2020/12/02 04:44:26;;;;;;;13.35;7.82;;;19.60;44.60;;;;;;5045398;28;20029;-67
2020/12/02 04:46:55;;;;;;;17.98;8.75;;;19.60;44.60;;;;;;5054811;28;20036;-75
2020/12/02 04:49:29;;;;;;;14.50;8.80;;;19.60;44.60;;;;;;5038302;28;20021;-76
2020/12/02 04:51:57;;;;;;;16.17;8.35;;;19.60;44.60;;;;;;5059922;28;20030;-76
2020/12/02 04:54:23;;;;;;;15.68;8.75;;;19.60;44.60;;;;;;5049327;28;20562;-76
2020/12/02 04:56:49;;;;;;;17.92;8.70;;;19.60;44.70;;;;;;5056494;28;20056;-68
2020/12/02 04:59:14;;;;;;;15.75;8.77;;;19.60;44.70;;;;;;5059764;28;20048;-68
2020/12/02 05:01:53;;;;;;;1.23;1.00;;;19.60;44.60;;;;;;5052583;28;20500;-68
2020/12/02 05:04:21;;;;;;;3.05;1.90;;;19.60;44.70;;;;;;5062106;28;20406;-68
2020/12/02 05:06:49;;;;;;;2.92;1.27;;;19.50;44.70;;;;;;5052189;28;20055;-68
2020/12/02 05:09:22;;;;;;;3.70;1.67;;;19.60;44.70;;;;;;5041982;28;20024;-68
2020/12/02 05:11:57;;;;;;;5.70;1.20;;;19.60;44.60;;;;;;5061322;28;20032;-68
2020/12/02 05:14:23;;;;;;;2.15;1.50;;;19.70;44.50;;;;;;5047727;28;20041;-68
2020/12/02 05:17:18;;;;;;;1.55;0.95;;;19.80;44.40;;;;;;5042026;28;20095;-68
2020/12/02 05:20:01;;;;;;;2.50;1.45;;;19.90;44.30;;;;;;5052617;28;20029;-68
2020/12/02 05:22:27;;;;;;;3.70;1.48;;;19.90;44.20;;;;;;5051491;28;20056;-68
2020/12/02 05:24:53;;;;;;;10.40;1.65;;;20.00;44.10;;;;;;5070301;28;20451;-68
2020/12/02 05:27:22;;;;;;;1.88;1.60;;;20.00;43.90;;;;;;5063099;28;20044;-68
2020/12/02 05:30:20;;;;;;;2.60;1.40;;;20.10;43.80;;;;;;5049222;28;20028;-68
2020/12/02 05:33:22;;;;;;;2.53;1.65;;;20.20;43.60;;;;;;5008264;28;20049;-67
2020/12/02 05:35:53;;;;;;;3.42;1.80;;;20.30;43.50;;;;;;4952313;28;20110;-67
2020/12/02 05:38:26;;;;;;;3.58;1.83;;;20.30;43.40;;;;;;4935641;28;20755;-78
2020/12/02 05:40:52;;;;;;;3.97;1.83;;;20.40;43.40;;;;;;4937079;29;20015;-78
2020/12/02 05:43:23;;;;;;;2.92;1.27;;;20.40;43.20;;;;;;4952180;28;20043;-78
2020/12/02 05:46:37;;;;;;;3.15;1.92;;;20.50;43.30;;;;;;4935772;29;20031;-78
2020/12/02 05:49:38;;;;;;;4.35;1.77;;;20.50;43.20;;;;;;4957742;28;20515;-78
2020/12/02 05:52:04;;;;;;;3.55;1.55;;;20.50;43.10;;;;;;4936808;29;20067;-77
2020/12/02 05:54:29;;;;;;;1.77;1.27;;;20.50;43.10;;;;;;4935216;29;20063;-79
2020/12/02 05:56:57;;;;;;;2.97;1.80;;;20.50;43.10;;;;;;4896863;29;20051;-78
2020/12/02 05:59:22;;;;;;;2.42;1.55;;;20.50;43.00;;;;;;4897449;29;20046;-78
2020/12/02 06:01:48;;;;;;;1.52;1.17;;;20.60;43.00;;;;;;4910455;29;20487;-81
2020/12/02 06:04:14;;;;;;;1.90;1.02;;;20.60;43.60;;;;;;4909046;29;20055;-80
2020/12/02 06:06:40;;;;;;;1.70;1.13;;;20.60;42.90;;;;;;4878439;29;20532;-68
2020/12/02 06:09:06;;;;;;;1.88;1.05;;;20.60;42.90;;;;;;4937578;28;20048;-68
2020/12/02 06:11:33;;;;;;;2.33;1.02;;;20.60;42.90;;;;;;5033384;28;20039;-68
2020/12/02 06:14:01;;;;;;;5.57;2.28;;;20.70;42.90;;;;;;5050363;28;20053;-78
2020/12/02 06:16:39;;;;;;;2.85;1.40;;;20.70;43.00;;;;;;5060393;28;20399;-78
2020/12/02 06:19:23;;;;;;;2.95;1.58;;;20.70;42.90;;;;;;5046220;28;20051;-78
2020/12/02 06:22:02;;;;;;;8.32;1.80;;;20.70;43.00;;;;;;5071220;28;20031;-78
2020/12/02 06:24:33;;;;;;;2.05;1.45;;;20.70;42.90;;;;;;5059328;28;20385;-78
2020/12/02 06:26:59;;;;;;;2.65;2.13;;;20.70;43.00;;;;;;5054337;28;20576;-79
2020/12/02 06:29:29;;;;;;;1.77;1.33;;;20.60;42.90;;;;;;5046208;28;20025;-76
2020/12/02 06:32:00;;;;;;;2.85;1.45;;;20.70;42.90;;;;;;5043060;28;20427;-67
2020/12/02 06:34:28;;;;;;;1.80;1.55;;;20.70;42.90;;;;;;5051542;28;20032;-67
2020/12/02 06:37:15;;;;;;;4.63;1.90;;;20.70;43.00;;;;;;5058645;28;20078;-68
2020/12/02 06:39:46;;;;;;;6.32;1.25;;;20.70;42.90;;;;;;5045672;28;20021;-67
2020/12/02 06:42:31;;;;;;;3.65;1.65;;;20.70;42.90;;;;;;5046062;28;20037;-76
2020/12/02 06:45:06;;;;;;;2.67;1.77;;;20.70;42.90;;;;;;5039471;28;20381;-76
2020/12/02 06:47:33;;;;;;;3.85;1.40;;;20.70;42.90;;;;;;5041826;28;20081;-76
2020/12/02 06:50:02;;;;;;;3.70;1.50;;;20.70;43.00;;;;;;5038115;28;20044;-74
2020/12/02 06:52:33;;;;;;;2.53;1.27;;;20.70;43.00;;;;;;5038080;28;20104;-67
2020/12/02 06:55:00;;;;;;;2.95;1.10;;;20.70;42.90;;;;;;5068751;28;20027;-67
2020/12/02 06:57:32;;;;;;;2.97;1.40;;;20.80;43.00;;;;;;5051141;28;20051;-67
2020/12/02 07:00:02;;;;;;;2.75;1.35;;;20.80;42.90;;;;;;5065025;28;20032;-68
2020/12/02 07:02:29;;;;;;;2.47;1.48;;;20.80;42.80;;;;;;5057253;28;20016;-76
2020/12/02 07:04:55;;;;;;;1.77;1.25;;;20.90;42.90;;;;;;5044442;28;20033;-76
2020/12/02 07:07:21;;;;;;;5.30;1.77;;;20.90;42.90;;;;;;5052102;28;20025;-76
2020/12/02 07:09:47;;;;;;;3.80;2.00;;;20.90;43.00;;;;;;5045508;28;20105;-67
2020/12/02 07:12:13;;;;;;;3.55;2.28;;;20.90;42.90;;;;;;5042537;28;20028;-68
2020/12/02 07:14:39;;;;;;;4.63;2.13;;;20.90;42.90;;;;;;5062705;28;20061;-67
2020/12/02 07:17:07;;;;;;;4.68;1.73;;;20.90;42.90;;;;;;5066452;28;20025;-67
2020/12/02 07:19:35;;;;;;;3.70;1.95;;;20.90;42.80;;;;;;5061017;28;20020;-67
2020/12/02 07:22:04;;;;;;;1.55;1.30;;;20.90;42.80;;;;;;5047101;28;20131;-67
2020/12/02 07:24:48;;;;;;;3.10;2.03;;;20.90;42.80;;;;;;5052883;28;20040;-67
2020/12/02 07:27:14;;;;;;;4.70;1.10;;;20.90;42.80;;;;;;5046749;28;20610;-67
2020/12/02 07:29:45;;;;;;;1.10;1.00;;;20.90;42.80;;;;;;5038931;28;20490;-67
2020/12/02 07:32:12;;;;;;;4.07;1.85;;;21.00;42.80;;;;;;5038653;28;20044;-67
2020/12/02 07:34:41;;;;;;;14.48;1.83;;;21.00;42.80;;;;;;5038538;28;20025;-67
2020/12/02 07:37:20;;;;;;;2.75;1.48;;;21.00;42.70;;;;;;5051367;28;20043;-74
2020/12/02 07:40:03;;;;;;;3.10;1.58;;;21.00;42.70;;;;;;5050111;28;20021;-74
2020/12/02 07:42:38;;;;;;;2.83;1.27;;;21.10;42.50;;;;;;5038367;28;20058;-75
2020/12/02 07:45:14;;;;;;;3.20;1.90;;;21.10;42.50;;;;;;5049768;28;20035;-75
2020/12/02 07:47:47;;;;;;;6.32;1.45;;;21.10;42.50;;;;;;5040378;28;20072;-74
2020/12/02 07:50:39;;;;;;;3.58;1.70;;;21.10;42.50;;;;;;5043535;28;20037;-74
2020/12/02 07:53:16;;;;;;;1.75;1.40;;;21.10;42.50;;;;;;5061172;28;20408;-74
2020/12/02 07:55:48;;;;;;;2.72;1.35;;;21.10;42.50;;;;;;5050512;28;20044;-67
2020/12/02 07:58:34;;;;;;;2.40;1.42;;;21.10;43.20;;;;;;5039142;28;20075;-67
2020/12/02 08:01:29;;;;;;;1.65;1.17;;;21.10;42.50;;;;;;5064490;28;20035;-67
2020/12/02 08:03:54;;;;;;;3.50;2.03;;;21.10;43.20;;;;;;5048702;28;20029;-67
2020/12/02 08:06:43;;;;;;;4.82;1.88;;;21.00;42.60;;;;;;5056111;28;20025;-76
2020/12/02 08:09:08;;;;;;;3.30;1.20;;;21.00;42.60;;;;;;5058348;28;20026;-76
2020/12/02 08:11:34;;;;;;;1.92;1.67;;;21.00;42.60;;;;;;5045519;28;20037;-66
2020/12/02 08:14:00;;;;;;;2.80;1.38;;;21.00;42.70;;;;;;5052028;28;20040;-66
2020/12/02 08:16:35;;;;;;;3.15;1.52;;;21.10;42.70;;;;;;5057884;28;20029;-66
2020/12/02 08:19:01;;;;;;;1.90;1.65;;;21.00;42.70;;;;;;5054938;28;20523;-74
2020/12/02 08:21:27;;;;;;;3.33;1.48;;;21.00;42.80;;;;;;5059243;28;20035;-74
2020/12/02 08:24:14;;;;;;;2.30;1.30;;;21.00;42.80;;;;;;5051763;28;20190;-74
2020/12/02 08:26:41;;;;;;;2.30;1.83;;;21.00;42.80;;;;;;5051292;28;20029;-74
2020/12/02 08:29:07;;;;;;;1.90;1.08;;;21.00;42.80;;;;;;5048373;28;20047;-75
2020/12/02 08:31:33;;;;;;;3.20;1.73;;;20.90;42.70;;;;;;5049672;28;20112;-74
2020/12/02 08:34:27;;;;;;;2.88;1.90;;;21.00;42.80;;;;;;5052004;28;20088;-74
2020/12/02 08:37:34;;;;;;;7.15;2.05;;;21.00;42.70;;;;;;5060717;28;20033;-74
2020/12/02 08:40:26;;;;;;;4.47;2.38;;;21.00;42.70;;;;;;5068943;28;20037;-74
2020/12/02 08:42:52;;;;;;;4.18;2.00;;;21.00;42.80;;;;;;5078878;28;20028;-74
2020/12/02 08:45:19;;;;;;;3.50;1.92;;;21.00;42.80;;;;;;5051617;28;20044;-66
2020/12/02 08:47:55;;;;;;;4.45;1.95;;;21.00;42.80;;;;;;5055096;28;20028;-66
2020/12/02 08:50:25;;;;;;;2.50;1.48;;;21.00;42.80;;;;;;5057003;28;20077;-66
2020/12/02 08:52:59;;;;;;;3.15;1.80;;;20.90;42.80;;;;;;5078120;28;20071;-66
2020/12/02 08:55:25;;;;;;;4.47;2.47;;;20.90;42.80;;;;;;5069308;28;20381;-66
2020/12/02 08:58:00;;;;;;;4.57;2.00;;;20.90;42.80;;;;;;5075673;28;20151;-66
2020/12/02 09:00:26;;;;;;;3.88;1.50;;;20.90;42.80;;;;;;5071291;28;20024;-66
2020/12/02 09:02:52;;;;;;;4.70;1.98;;;20.90;42.80;;;;;;5071742;28;20450;-67
2020/12/02 09:05:17;;;;;;;5.35;2.03;;;20.90;42.80;;;;;;5072977;28;20517;-67
2020/12/02 09:07:43;;;;;;;6.07;2.67;;;20.90;42.90;;;;;;5070929;28;20033;-68
2020/12/02 09:10:08;;;;;;;2.30;1.92;;;20.90;42.90;;;;;;5069495;28;20447;-67
2020/12/02 09:12:34;;;;;;;3.03;1.92;;;20.90;42.90;;;;;;5070759;28;20119;-67
2020/12/02 09:14:59;;;;;;;3.42;1.45;;;20.90;42.90;;;;;;5070560;28;20070;-66
2020/12/02 09:17:25;;;;;;;3.78;2.05;;;20.90;42.90;;;;;;5051964;28;20040;-67
2020/12/02 09:19:51;;;;;;;3.38;2.25;;;20.90;42.90;;;;;;5058230;28;20079;-67
2020/12/02 09:22:18;;;;;;;4.78;2.30;;;21.00;42.90;;;;;;5053721;28;20024;-67
2020/12/02 09:24:44;;;;;;;4.15;2.35;;;21.00;42.90;;;;;;5048400;28;20072;-67
2020/12/02 09:27:11;;;;;;;5.88;2.65;;;21.00;42.90;;;;;;5052984;28;20103;-66
2020/12/02 09:29:36;;;;;;;2.05;1.30;;;21.00;42.80;;;;;;5045630;28;20116;-67
2020/12/02 09:32:02;;;;;;;1.52;1.42;;;21.00;42.90;;;;;;5047398;28;20105;-67
2020/12/02 09:34:27;;;;;;;3.85;1.65;;;21.00;42.90;;;;;;5052661;28;20043;-67
2020/12/02 09:36:53;;;;;;;3.30;1.40;;;21.00;42.80;;;;;;5062390;28;20018;-75
2020/12/02 09:39:19;;;;;;;2.30;1.83;;;21.00;42.90;;;;;;5059475;28;20079;-75
2020/12/02 09:42:06;;;;;;;2.53;1.73;;;21.00;42.80;;;;;;5051628;28;20095;-74
2020/12/02 09:44:35;;;;;;;3.38;1.85;;;21.00;42.80;;;;;;5047100;28;20056;-74
2020/12/02 09:47:21;;;;;;;3.28;1.88;;;21.00;42.80;;;;;;5071031;28;20105;-74
2020/12/02 09:49:47;;;;;;;1.52;1.42;;;21.00;42.80;;;;;;5048100;28;20029;-76
2020/12/02 09:52:12;;;;;;;3.72;1.70;;;21.00;42.90;;;;;;5060554;28;20087;-75
2020/12/02 09:54:40;;;;;;;3.22;1.75;;;21.00;42.90;;;;;;5058182;28;20064;-76
2020/12/02 09:57:26;;;;;;;5.15;1.88;;;21.00;42.80;;;;;;5052541;28;20029;-75
2020/12/02 09:59:52;;;;;;;1.45;1.35;;;21.00;42.80;;;;;;5049548;28;20033;-76
2020/12/02 10:03:05;;;;;;;2.40;1.45;;;21.00;42.80;;;;;;5055014;28;20083;-74
2020/12/02 10:05:59;;;;;;;3.35;1.35;;;21.00;42.80;;;;;;5075145;28;20055;-75
2020/12/02 10:08:29;;;;;;;3.90;1.90;;;21.00;42.80;;;;;;5084823;28;20538;-76
2020/12/02 10:11:10;;;;;;;10.18;2.08;;;21.00;42.80;;;;;;5074267;28;20130;-75
2020/12/02 10:14:14;;;;;;;4.38;1.58;;;21.00;42.80;;;;;;5058291;28;20089;-75
2020/12/02 10:16:43;;;;;;;4.55;2.08;;;21.00;42.80;;;;;;5070858;28;20045;-75
2020/12/02 10:19:34;;;;;;;2.33;1.40;;;21.00;42.80;;;;;;5073751;28;20056;-75
2020/12/02 10:22:09;;;;;;;4.70;2.05;;;21.00;42.80;;;;;;5074383;28;20059;-76
2020/12/02 10:24:40;;;;;;;3.13;1.57;;;21.00;42.80;;;;;;5052900;28;20059;-74
2020/12/02 10:27:14;;;;;;;3.55;1.77;;;21.00;42.80;;;;;;5046759;28;20024;-76
2020/12/02 10:29:46;;;;;;;2.97;1.65;;;21.00;42.90;;;;;;5039008;28;20084;-74
2020/12/02 10:32:23;;;;;;;0.93;0.88;;;21.10;42.90;;;;;;5073231;28;20028;-75
2020/12/02 10:34:49;;;;;;;2.38;1.27;;;21.00;42.90;;;;;;5052326;28;20048;-74
2020/12/02 10:37:19;;;;;;;3.25;1.75;;;21.10;42.90;;;;;;5078002;28;20514;-73
2020/12/02 10:39:45;;;;;;;3.53;1.95;;;21.00;42.90;;;;;;5086037;28;20016;-74
2020/12/02 10:42:38;;;;;;;1.27;1.08;;;21.00;42.90;;;;;;5076505;28;20039;-73
2020/12/02 10:45:20;;;;;;;5.60;2.22;;;21.00;42.90;;;;;;5064244;28;20033;-74
2020/12/02 10:47:48;;;;;;;5.60;1.83;;;21.00;42.90;;;;;;5036509;28;20025;-74
2020/12/02 10:50:15;;;;;;;3.30;1.58;;;21.00;42.90;;;;;;5053066;28;20036;-74
2020/12/02 10:56:03;;;;;;;2.60;1.50;;;21.00;42.90;;;;;;5051914;28;20050;-74
2020/12/02 10:58:29;;;;;;;3.20;1.40;;;21.10;42.90;;;;;;5100745;28;20035;-74
2020/12/02 11:00:57;;;;;;;2.20;1.52;;;21.10;42.90;;;;;;5092171;28;20072;-74
2020/12/02 11:03:33;;;;;;;4.07;1.75;;;21.10;42.90;;;;;;5092686;28;20024;-74
2020/12/02 11:06:21;;;;;;;5.03;1.90;;;21.10;42.80;;;;;;5083204;28;20450;-75
2020/12/02 11:09:15;;;;;;;4.47;2.10;;;21.20;42.80;;;;;;5074774;28;20028;-74
2020/12/02 11:11:43;;;;;;;1.73;1.63;;;21.20;42.80;;;;;;5089130;28;20442;-75
2020/12/02 11:14:54;;;;;;;3.55;1.80;;;21.20;42.80;;;;;;5075728;28;20055;-74
2020/12/02 11:17:38;;;;;;;2.90;1.15;;;21.20;42.70;;;;;;5081530;28;20026;-75
2020/12/02 11:20:11;;;;;;;1.67;1.27;;;21.30;42.70;;;;;;5092844;28;20495;-75
2020/12/02 11:22:58;;;;;;;2.80;1.63;;;21.30;42.70;;;;;;5075467;28;20042;-75
2020/12/02 11:25:44;;;;;;;5.25;2.05;;;21.30;42.70;;;;;;5099405;28;20061;-75
2020/12/02 11:28:10;;;;;;;3.33;1.38;;;21.30;42.70;;;;;;5069196;28;20557;-75
2020/12/02 11:30:40;;;;;;;2.42;1.60;;;21.30;42.60;;;;;;5078222;28;20035;-67
2020/12/02 11:33:12;;;;;;;3.80;1.85;;;21.30;42.70;;;;;;5095778;28;20035;-67
2020/12/02 11:36:10;;;;;;;7.90;1.40;;;21.30;42.70;;;;;;5076937;28;20024;-67
2020/12/02 11:39:01;;;;;;;1.88;1.20;;;21.30;42.70;;;;;;5024701;28;20033;-67
2020/12/02 11:41:48;;;;;;;1.42;1.33;;;21.30;42.70;;;;;;5015940;28;20069;-75
2020/12/02 11:44:35;;;;;;;2.33;1.23;;;21.30;42.80;;;;;;5018543;28;20033;-75
2020/12/02 11:47:19;;;;;;;7.65;1.90;;;21.20;42.80;;;;;;5016357;28;20046;-75
2020/12/02 11:49:57;;;;;;;2.20;1.30;;;21.20;42.90;;;;;;5034058;28;20037;-74
2020/12/02 11:52:30;;;;;;;2.00;0.95;;;21.20;43.00;;;;;;5020371;28;20144;-75
2020/12/02 11:54:56;;;;;;;2.00;1.27;;;21.20;43.10;;;;;;5009828;28;20037;-73
2020/12/02 11:57:22;;;;;;;2.85;1.83;;;21.20;43.10;;;;;;5030814;28;20072;-73
2020/12/02 11:59:47;;;;;;;5.00;1.50;;;21.10;43.00;;;;;;5028333;28;20052;-73
2020/12/02 12:02:39;;;;;;;2.63;1.70;;;21.10;43.10;;;;;;5036490;28;20116;-73
2020/12/02 12:05:15;;;;;;;4.85;2.05;;;21.10;43.20;;;;;;5034652;28;20034;-72
2020/12/02 12:07:51;;;;;;;2.03;1.40;;;21.10;43.10;;;;;;5012853;28;20140;-73
2020/12/02 12:10:23;;;;;;;2.60;1.42;;;21.10;43.10;;;;;;5019003;28;20029;-73
2020/12/02 12:13:16;;;;;;;2.40;1.42;;;21.10;43.00;;;;;;5031819;28;20037;-73
2020/12/02 12:15:48;;;;;;;3.92;1.63;;;21.20;43.00;;;;;;5057444;28;20131;-75
2020/12/02 12:18:35;;;;;;;6.25;1.85;;;21.20;42.90;;;;;;5072255;28;20032;-66
2020/12/02 12:21:03;;;;;;;3.15;1.73;;;21.30;42.80;;;;;;5054774;28;20036;-67
2020/12/02 12:24:11;;;;;;;2.45;1.40;;;21.40;42.70;;;;;;5053378;28;20116;-66
2020/12/02 12:26:57;;;;;;;4.18;1.55;;;21.50;42.50;;;;;;4989128;28;20117;-66
2020/12/02 12:29:22;;;;;;;2.00;1.55;;;21.60;42.40;;;;;;4990439;28;20066;-67
2020/12/02 12:31:53;;;;;;;2.95;1.33;;;21.60;42.20;;;;;;4973279;28;20061;-67
2020/12/02 12:34:31;;;;;;;5.28;1.55;;;21.70;42.20;;;;;;4978647;28;20147;-66
2020/12/02 12:37:00;;;;;;;2.65;0.82;;;21.70;42.00;;;;;;4990898;28;20498;-67
2020/12/02 12:39:39;;;;;;;2.50;1.13;;;21.70;42.00;;;;;;4973304;28;20027;-67
2020/12/02 12:42:04;;;;;;;4.63;1.85;;;21.80;41.90;;;;;;4988280;28;20278;-67
2020/12/02 12:44:33;;;;;;;1.10;1.00;;;21.80;41.80;;;;;;4991069;28;20117;-66
2020/12/02 12:47:16;;;;;;;2.00;1.20;;;21.80;41.80;;;;;;4989776;28;20041;-66
2020/12/02 12:49:42;;;;;;;3.50;1.40;;;21.90;41.80;;;;;;4990228;28;20050;-66
2020/12/02 12:52:08;;;;;;;1.30;1.08;;;21.90;41.70;;;;;;4974415;28;20038;-66
2020/12/02 12:54:37;;;;;;;2.20;1.50;;;21.90;41.60;;;;;;4973588;28;20169;-66
2020/12/02 12:57:03;;;;;;;2.35;1.33;;;21.90;41.60;;;;;;4989670;28;20027;-66
2020/12/02 12:59:31;;;;;;;3.28;1.40;;;22.00;41.70;;;;;;4992117;28;20114;-66
2020/12/02 13:01:57;;;;;;;2.97;1.42;;;22.00;41.70;;;;;;5006354;28;20107;-66
2020/12/02 13:04:27;;;;;;;1.23;1.05;;;22.00;41.70;;;;;;5082733;28;20154;-66
2020/12/02 13:06:59;;;;;;;2.60;1.25;;;22.00;41.70;;;;;;5037953;28;20052;-66
2020/12/02 13:09:45;;;;;;;4.00;1.75;;;22.00;41.70;;;;;;5051265;28;20025;-66
2020/12/02 13:12:23;;;;;;;4.28;1.92;;;22.00;41.70;;;;;;5050745;28;20032;-67
2020/12/02 13:15:05;;;;;;;4.47;1.20;;;22.00;41.70;;;;;;5058474;28;20393;-66
2020/12/02 13:17:43;;;;;;;4.20;1.67;;;22.00;41.70;;;;;;5083310;28;20051;-67
2020/12/02 13:20:23;;;;;;;2.10;1.13;;;22.00;41.70;;;;;;5083898;28;20048;-66
2020/12/02 13:23:11;;;;;;;2.55;1.25;;;22.00;41.70;;;;;;5065967;28;20545;-67